createdAt,value
2017-10-26T00:01:52.752Z,5.40
2017-10-26T00:04:20.202Z,5.20
2017-10-26T00:06:47.679Z,4.93
2017-10-26T00:09:15.165Z,5.53
2017-10-26T00:11:42.757Z,5.37
2017-10-26T00:14:10.258Z,5.00
2017-10-26T00:16:37.734Z,4.83
2017-10-26T00:19:05.198Z,4.67
2017-10-26T00:21:32.658Z,5.37
2017-10-26T00:24:00.150Z,4.57
2017-10-26T00:26:27.635Z,4.50
2017-10-26T00:28:55.078Z,4.70
2017-10-26T00:31:22.542Z,4.50
2017-10-26T00:33:50.011Z,4.90
2017-10-26T00:36:17.486Z,4.90
2017-10-26T00:38:44.958Z,4.70
2017-10-26T00:41:12.428Z,4.93
2017-10-26T00:43:39.899Z,4.87
2017-10-26T00:46:07.379Z,4.60
2017-10-26T00:48:34.854Z,4.83
2017-10-26T00:51:02.341Z,5.27
2017-10-26T00:53:29.822Z,4.70
2017-10-26T00:55:57.289Z,5.73
2017-10-26T00:58:24.735Z,5.17
2017-10-26T01:00:52.264Z,5.10
2017-10-26T01:03:19.720Z,5.00
2017-10-26T01:05:47.187Z,5.33
2017-10-26T01:08:14.682Z,5.97
2017-10-26T01:10:42.142Z,4.90
2017-10-26T01:13:09.598Z,5.07
2017-10-26T01:15:37.100Z,5.60
2017-10-26T01:18:04.605Z,5.60
2017-10-26T01:20:32.074Z,5.80
2017-10-26T01:22:59.540Z,5.77
2017-10-26T01:25:27.010Z,5.57
2017-10-26T01:27:54.491Z,6.20
2017-10-26T01:30:21.987Z,5.97
2017-10-26T01:32:49.533Z,6.10
2017-10-26T01:35:16.997Z,5.77
2017-10-26T01:37:44.543Z,6.00
2017-10-26T01:40:12.020Z,7.43
2017-10-26T01:42:39.523Z,7.07
2017-10-26T01:45:07.029Z,6.90
2017-10-26T01:47:34.522Z,7.93
2017-10-26T01:50:02.019Z,7.40
2017-10-26T01:52:29.530Z,6.47
2017-10-26T01:54:56.990Z,6.60
2017-10-26T01:57:24.474Z,7.00
2017-10-26T01:59:51.980Z,6.80
2017-10-26T02:02:19.437Z,6.70
2017-10-26T02:04:46.888Z,7.10
2017-10-26T02:07:14.375Z,7.37
2017-10-26T02:09:41.871Z,6.80
2017-10-26T02:12:10.072Z,7.57
2017-10-26T02:14:37.590Z,7.47
2017-10-26T02:17:05.075Z,7.83
2017-10-26T02:19:32.560Z,6.10
2017-10-26T02:22:00.025Z,7.07
2017-10-26T02:24:27.489Z,6.90
2017-10-26T02:26:54.943Z,7.70
2017-10-26T02:29:34.095Z,7.80
2017-10-26T02:32:01.561Z,8.33
2017-10-26T02:34:29.043Z,7.43
2017-10-26T02:36:56.524Z,8.10
2017-10-26T02:39:23.977Z,8.10
2017-10-26T02:41:51.437Z,8.20
2017-10-26T02:44:18.952Z,8.83
2017-10-26T02:46:46.930Z,7.47
2017-10-26T02:49:14.385Z,6.67
2017-10-26T02:51:41.862Z,6.60
2017-10-26T02:54:09.329Z,7.17
2017-10-26T02:56:36.803Z,7.67
2017-10-26T02:59:04.277Z,7.17
2017-10-26T03:01:31.747Z,7.83
2017-10-26T03:03:59.248Z,8.17
2017-10-26T03:06:26.739Z,7.90
2017-10-26T03:08:54.195Z,8.20
2017-10-26T03:11:21.759Z,9.63
2017-10-26T03:13:49.264Z,9.87
2017-10-26T03:16:16.753Z,8.40
2017-10-26T03:18:44.254Z,8.57
2017-10-26T03:21:11.926Z,8.90
2017-10-26T03:23:39.404Z,8.87
2017-10-26T03:26:06.878Z,9.80
2017-10-26T03:28:34.401Z,8.97
2017-10-26T03:31:01.883Z,9.23
2017-10-26T03:33:29.360Z,8.93
2017-10-26T03:35:56.919Z,9.13
2017-10-26T03:38:24.375Z,8.53
2017-10-26T03:40:51.834Z,9.43
2017-10-26T03:43:19.331Z,9.43
2017-10-26T03:45:46.808Z,8.20
2017-10-26T03:48:14.267Z,9.40
2017-10-26T03:50:41.763Z,9.50
2017-10-26T03:53:09.229Z,10.07
2017-10-26T03:55:36.711Z,10.03
2017-10-26T03:58:04.201Z,10.17
2017-10-26T04:00:31.663Z,10.40
2017-10-26T04:02:59.146Z,10.07
2017-10-26T04:05:26.643Z,11.10
2017-10-26T04:07:54.123Z,11.33
2017-10-26T04:10:21.605Z,11.70
2017-10-26T04:12:49.096Z,11.00
2017-10-26T04:15:22.805Z,11.50
2017-10-26T04:17:50.328Z,10.43
2017-10-26T04:20:17.819Z,11.77
2017-10-26T04:22:45.357Z,11.83
2017-10-26T04:25:12.872Z,10.70
2017-10-26T04:27:40.356Z,11.50
2017-10-26T04:30:07.900Z,11.93
2017-10-26T04:32:35.404Z,10.73
2017-10-26T04:35:02.869Z,12.50
2017-10-26T04:37:30.331Z,12.00
2017-10-26T04:39:57.797Z,11.70
2017-10-26T04:42:25.278Z,12.17
2017-10-26T04:44:52.760Z,11.63
2017-10-26T04:47:20.243Z,12.70
2017-10-26T04:49:47.718Z,11.43
2017-10-26T04:52:15.184Z,11.17
2017-10-26T04:54:42.745Z,11.50
2017-10-26T04:57:10.220Z,11.73
2017-10-26T04:59:37.697Z,11.00
2017-10-26T05:02:05.205Z,10.33
2017-10-26T05:04:32.679Z,10.80
2017-10-26T05:07:00.190Z,12.90
2017-10-26T05:09:27.730Z,11.80
2017-10-26T05:11:55.194Z,10.93
2017-10-26T05:14:22.678Z,10.30
2017-10-26T05:16:50.167Z,10.47
2017-10-26T05:19:17.637Z,11.43
2017-10-26T05:21:45.133Z,11.60
2017-10-26T05:24:12.649Z,11.20
2017-10-26T05:26:40.147Z,11.03
2017-10-26T05:29:07.640Z,10.63
2017-10-26T05:31:35.153Z,10.63
2017-10-26T05:34:02.647Z,10.03
2017-10-26T05:36:30.118Z,10.13
2017-10-26T05:38:57.644Z,10.50
2017-10-26T05:41:25.127Z,9.80
2017-10-26T05:43:52.623Z,10.90
2017-10-26T05:46:20.152Z,9.80
2017-10-26T05:48:47.646Z,9.30
2017-10-26T05:51:15.134Z,10.57
2017-10-26T05:53:42.716Z,10.20
2017-10-26T05:56:10.202Z,9.90
2017-10-26T05:58:37.684Z,9.60
2017-10-26T06:01:05.241Z,7.97
2017-10-26T06:03:32.711Z,9.77
2017-10-26T06:06:00.180Z,9.40
2017-10-26T06:08:27.685Z,9.67
2017-10-26T06:10:55.174Z,8.40
2017-10-26T06:13:22.641Z,9.70
2017-10-26T06:15:50.147Z,8.37
2017-10-26T06:18:17.621Z,9.30
2017-10-26T06:20:45.089Z,8.40
2017-10-26T06:23:12.560Z,8.10
2017-10-26T06:25:40.030Z,8.67
2017-10-26T06:28:07.555Z,8.10
2017-10-26T06:30:35.054Z,8.60
2017-10-26T06:33:02.527Z,8.20
2017-10-26T06:35:30.010Z,8.37
2017-10-26T06:37:57.504Z,8.20
2017-10-26T06:40:24.968Z,8.70
2017-10-26T06:42:52.466Z,9.27
2017-10-26T06:45:19.965Z,8.80
2017-10-26T06:47:47.433Z,8.43
2017-10-26T06:50:14.920Z,9.17
2017-10-26T06:52:42.475Z,8.73
2017-10-26T06:55:09.944Z,8.20
2017-10-26T06:57:37.441Z,8.73
2017-10-26T07:00:04.965Z,8.67
2017-10-26T07:02:35.800Z,8.33
2017-10-26T07:05:03.296Z,9.47
2017-10-26T07:07:30.814Z,9.33
2017-10-26T07:09:58.310Z,10.40
2017-10-26T07:12:25.820Z,8.50
2017-10-26T07:14:53.366Z,10.10
2017-10-26T07:17:20.854Z,9.20
2017-10-26T07:19:48.344Z,8.43
2017-10-26T07:22:15.821Z,9.30
2017-10-26T07:24:43.299Z,9.70
2017-10-26T07:27:10.756Z,9.33
2017-10-26T07:29:38.241Z,9.90
2017-10-26T07:32:05.713Z,8.27
2017-10-26T07:34:33.164Z,8.50
2017-10-26T07:37:00.656Z,8.63
2017-10-26T07:39:28.119Z,9.13
2017-10-26T07:41:55.695Z,7.93
2017-10-26T07:44:23.164Z,8.67
2017-10-26T07:46:50.645Z,8.70
2017-10-26T07:49:18.151Z,8.27
2017-10-26T07:51:45.713Z,9.00
2017-10-26T07:54:13.223Z,8.47
2017-10-26T07:56:40.731Z,8.77
2017-10-26T07:59:08.264Z,8.13
2017-10-26T08:01:36.618Z,7.20
2017-10-26T08:04:04.077Z,8.00
2017-10-26T08:06:31.567Z,7.47
2017-10-26T08:08:59.035Z,8.40
2017-10-26T08:11:26.516Z,8.13
2017-10-26T08:13:54.002Z,8.80
2017-10-26T08:16:21.461Z,8.57
2017-10-26T08:18:48.953Z,9.30
2017-10-26T08:21:16.481Z,8.10
2017-10-26T08:23:43.964Z,8.10
2017-10-26T08:26:11.417Z,8.60
2017-10-26T08:28:38.916Z,8.83
2017-10-26T08:31:06.374Z,8.27
2017-10-26T08:33:33.869Z,8.50
2017-10-26T08:36:01.445Z,8.67
2017-10-26T08:38:29.007Z,8.37
2017-10-26T08:40:56.476Z,8.37
2017-10-26T08:43:23.983Z,10.13
2017-10-26T08:45:51.491Z,9.20
2017-10-26T08:48:18.985Z,8.23
2017-10-26T08:50:46.482Z,9.17
2017-10-26T08:53:13.976Z,7.53
2017-10-26T08:55:41.476Z,8.80
2017-10-26T08:58:09.025Z,9.07
2017-10-26T09:00:36.522Z,8.83
2017-10-26T09:03:03.999Z,8.50
2017-10-26T09:05:31.562Z,9.00
2017-10-26T09:07:59.048Z,7.97
2017-10-26T09:10:26.758Z,8.33
2017-10-26T09:12:54.233Z,6.60
2017-10-26T09:15:21.728Z,8.43
2017-10-26T09:17:49.257Z,9.40
2017-10-26T09:20:16.762Z,9.77
2017-10-26T09:22:44.271Z,9.03
2017-10-26T09:25:11.756Z,10.00
2017-10-26T09:27:39.280Z,9.27
2017-10-26T09:30:06.777Z,10.00
2017-10-26T09:32:34.276Z,9.03
2017-10-26T09:35:01.805Z,11.00
2017-10-26T09:37:29.297Z,9.67
2017-10-26T09:39:56.773Z,12.37
2017-10-26T09:42:24.269Z,13.83
2017-10-26T09:44:51.779Z,14.10
2017-10-26T09:47:19.289Z,12.50
2017-10-26T09:49:46.807Z,12.70
2017-10-26T09:52:14.334Z,13.60
2017-10-26T09:54:41.867Z,13.97
2017-10-26T09:57:09.394Z,13.30
2017-10-26T09:59:36.874Z,12.13
2017-10-26T10:02:04.369Z,11.90
2017-10-26T10:04:31.886Z,13.47
2017-10-26T10:06:59.454Z,11.30
2017-10-26T10:09:26.926Z,11.93
2017-10-26T10:11:54.433Z,13.13
2017-10-26T10:14:21.923Z,10.50
2017-10-26T10:16:49.420Z,10.70
2017-10-26T10:19:16.953Z,9.57
2017-10-26T10:21:44.481Z,10.33
2017-10-26T10:24:12.006Z,10.40
2017-10-26T10:26:39.559Z,9.40
2017-10-26T10:29:07.064Z,10.27
2017-10-26T10:31:34.554Z,10.10
2017-10-26T10:34:02.137Z,10.30
2017-10-26T10:36:29.649Z,9.90
2017-10-26T10:38:57.137Z,10.73
2017-10-26T10:41:24.620Z,10.00
2017-10-26T10:43:52.194Z,8.87
2017-10-26T10:48:53.447Z,8.20
2017-10-26T10:51:20.950Z,8.20
2017-10-26T10:53:48.434Z,7.83
2017-10-26T10:56:15.973Z,7.70
2017-10-26T10:58:43.468Z,7.70
2017-10-26T11:01:11.127Z,8.17
2017-10-26T11:03:38.883Z,8.10
2017-10-26T11:06:06.381Z,7.33
2017-10-26T11:08:33.887Z,6.77
2017-10-26T11:11:01.403Z,7.30
2017-10-26T11:13:28.869Z,7.43
2017-10-26T11:15:56.337Z,5.80
2017-10-26T11:18:23.845Z,7.10
2017-10-26T11:20:51.342Z,6.90
2017-10-26T11:23:18.852Z,6.33
2017-10-26T11:25:46.370Z,5.73
2017-10-26T11:28:13.876Z,5.83
2017-10-26T11:30:41.373Z,5.67
2017-10-26T11:33:08.865Z,7.77
2017-10-26T11:35:36.342Z,7.17
2017-10-26T11:38:03.814Z,6.50
2017-10-26T11:40:31.313Z,8.40
2017-10-26T11:42:58.917Z,8.60
2017-10-26T11:45:26.413Z,7.57
2017-10-26T11:47:53.922Z,8.40
2017-10-26T11:50:21.451Z,8.60
2017-10-26T11:52:48.925Z,8.83
2017-10-26T11:55:16.468Z,9.43
2017-10-26T11:57:43.985Z,8.07
2017-10-26T12:00:11.516Z,9.20
2017-10-26T12:02:39.035Z,8.13
2017-10-26T12:05:06.524Z,7.90
2017-10-26T12:07:34.012Z,9.90
2017-10-26T12:10:01.517Z,8.80
2017-10-26T12:12:29.000Z,7.80
2017-10-26T12:14:56.488Z,8.47
2017-10-26T12:17:23.986Z,8.07
2017-10-26T12:19:51.487Z,7.10
2017-10-26T12:22:18.968Z,7.63
2017-10-26T12:24:46.453Z,8.17
2017-10-26T12:27:13.937Z,7.50
2017-10-26T12:29:41.571Z,8.30
2017-10-26T12:32:09.140Z,7.40
2017-10-26T12:34:36.613Z,6.87
2017-10-26T12:37:04.142Z,7.23
2017-10-26T12:39:31.656Z,6.33
2017-10-26T12:41:59.174Z,7.50
2017-10-26T12:44:26.667Z,8.20
2017-10-26T12:46:54.187Z,7.73
2017-10-26T12:49:21.658Z,8.80
2017-10-26T12:51:49.147Z,7.90
2017-10-26T12:54:16.719Z,9.53
2017-10-26T12:56:44.203Z,10.40
2017-10-26T12:59:11.725Z,11.17
2017-10-26T13:01:39.243Z,9.37
2017-10-26T13:04:06.773Z,10.90
2017-10-26T13:06:34.260Z,9.90
2017-10-26T13:09:01.766Z,11.60
2017-10-26T13:11:29.281Z,11.87
2017-10-26T13:13:56.761Z,10.60
2017-10-26T13:16:24.313Z,10.60
2017-10-26T13:18:52.799Z,11.10
2017-10-26T13:21:20.349Z,9.40
2017-10-26T13:23:47.870Z,10.07
2017-10-26T13:26:16.050Z,9.80
2017-10-26T13:28:43.529Z,9.00
2017-10-26T13:31:11.014Z,9.53
2017-10-26T13:33:38.492Z,9.00
2017-10-26T13:36:06.000Z,10.13
2017-10-26T13:38:33.468Z,10.70
2017-10-26T13:41:00.937Z,9.53
2017-10-26T13:43:28.400Z,9.47
2017-10-26T13:45:55.873Z,8.10
2017-10-26T13:48:23.348Z,9.80
2017-10-26T13:50:50.883Z,8.67
2017-10-26T13:53:18.393Z,8.40
2017-10-26T13:55:45.865Z,9.20
2017-10-26T13:58:13.467Z,8.20
2017-10-26T14:00:41.008Z,9.87
2017-10-26T14:03:08.503Z,8.77
2017-10-26T14:05:35.960Z,8.07
2017-10-26T14:08:03.437Z,8.00
2017-10-26T14:10:30.894Z,8.93
2017-10-26T14:12:58.352Z,10.00
2017-10-26T14:15:25.854Z,9.53
2017-10-26T14:17:53.333Z,9.30
2017-10-26T14:20:20.817Z,10.80
2017-10-26T14:22:48.308Z,10.40
2017-10-26T14:25:15.777Z,9.40
2017-10-26T14:27:43.267Z,8.77
2017-10-26T14:30:10.839Z,9.60
2017-10-26T14:32:38.312Z,10.53
2017-10-26T14:35:05.799Z,10.80
2017-10-26T14:37:33.304Z,10.67
2017-10-26T14:40:00.781Z,10.93
2017-10-26T14:42:28.257Z,10.20
2017-10-26T14:44:55.803Z,9.70
2017-10-26T14:47:23.280Z,10.80
2017-10-26T14:49:50.751Z,10.50
2017-10-26T14:52:18.264Z,11.17
2017-10-26T14:54:45.759Z,10.63
2017-10-26T14:57:13.305Z,10.37
2017-10-26T14:59:40.796Z,10.03
2017-10-26T15:02:08.269Z,10.30
2017-10-26T15:04:35.741Z,10.73
2017-10-26T15:07:03.224Z,10.10
2017-10-26T15:09:30.715Z,10.33
2017-10-26T15:11:58.189Z,9.83
2017-10-26T15:14:25.700Z,11.63
2017-10-26T15:16:53.174Z,12.13
2017-10-26T15:19:20.736Z,11.33
2017-10-26T15:21:48.258Z,10.87
2017-10-26T15:24:15.736Z,10.40
2017-10-26T15:26:43.233Z,11.80
2017-10-26T15:29:10.783Z,11.40
2017-10-26T15:31:38.266Z,11.27
2017-10-26T15:34:05.749Z,11.40
2017-10-26T15:36:33.301Z,10.00
2017-10-26T15:39:00.791Z,12.60
2017-10-26T15:41:28.265Z,11.70
2017-10-26T15:43:55.784Z,11.53
2017-10-26T15:46:23.301Z,12.57
2017-10-26T15:48:50.815Z,12.67
2017-10-26T15:51:18.362Z,12.63
2017-10-26T15:53:45.857Z,13.13
2017-10-26T15:56:13.344Z,12.10
2017-10-26T15:58:40.882Z,13.10
2017-10-26T16:01:08.405Z,14.47
2017-10-26T16:03:35.907Z,12.80
2017-10-26T16:06:03.392Z,13.97
2017-10-26T16:08:31.121Z,13.23
2017-10-26T16:10:58.610Z,13.20
2017-10-26T16:13:26.112Z,12.70
2017-10-26T16:15:53.594Z,13.87
2017-10-26T16:18:21.153Z,13.83
2017-10-26T16:20:48.718Z,12.73
2017-10-26T16:23:16.215Z,13.03
2017-10-26T16:25:43.677Z,14.50
2017-10-26T16:28:11.186Z,14.27
2017-10-26T16:30:38.676Z,13.90
2017-10-26T16:33:06.153Z,13.23
2017-10-26T16:35:33.646Z,11.80
2017-10-26T16:38:01.192Z,13.43
2017-10-26T16:40:28.669Z,13.10
2017-10-26T16:42:56.208Z,13.07
2017-10-26T16:45:23.682Z,12.93
2017-10-26T16:47:51.186Z,13.77
2017-10-26T16:50:18.723Z,14.00
2017-10-26T16:52:46.278Z,15.55
2017-10-26T16:55:13.800Z,18.00
2017-10-26T16:57:41.300Z,15.83
2017-10-26T17:00:08.790Z,14.83
2017-10-26T17:02:36.253Z,14.57
2017-10-26T17:05:03.767Z,13.83
2017-10-26T17:07:31.237Z,14.70
2017-10-26T17:09:58.726Z,14.83
2017-10-26T17:12:27.670Z,15.77
2017-10-26T17:14:55.412Z,14.87
2017-10-26T17:17:22.885Z,14.60
2017-10-26T17:19:50.385Z,14.90
2017-10-26T17:22:17.887Z,14.30
2017-10-26T17:24:45.592Z,13.60
2017-10-26T17:27:13.108Z,13.20
2017-10-26T17:29:40.583Z,13.70
2017-10-26T17:32:08.070Z,14.03
2017-10-26T17:34:35.574Z,14.10
2017-10-26T17:37:03.052Z,13.90
2017-10-26T17:39:30.526Z,13.97
2017-10-26T17:41:58.018Z,14.70
2017-10-26T17:44:25.512Z,13.67
2017-10-26T17:46:53.474Z,14.30
2017-10-26T17:49:21.030Z,15.20
2017-10-26T17:51:48.526Z,15.03
2017-10-26T17:54:16.011Z,14.97
2017-10-26T17:56:43.505Z,16.00
2017-10-26T17:59:10.981Z,15.50
2017-10-26T18:01:38.475Z,17.00
2017-10-26T18:04:05.991Z,16.67
2017-10-26T18:06:33.492Z,18.10
2017-10-26T18:09:00.972Z,18.10
2017-10-26T18:11:28.483Z,15.43
2017-10-26T18:13:56.062Z,18.10
2017-10-26T18:16:23.534Z,18.53
2017-10-26T18:18:51.083Z,16.40
2017-10-26T18:21:18.662Z,18.50
2017-10-26T18:23:46.134Z,18.00
2017-10-26T18:26:13.637Z,18.37
2017-10-26T18:28:41.127Z,19.83
2017-10-26T18:31:08.605Z,20.30
2017-10-26T18:33:36.102Z,16.77
2017-10-26T18:36:03.595Z,20.70
2017-10-26T18:38:31.214Z,18.37
2017-10-26T18:40:58.704Z,20.47
2017-10-26T18:43:26.193Z,20.03
2017-10-26T18:45:53.662Z,21.50
2017-10-26T18:48:21.174Z,20.77
2017-10-26T18:50:48.658Z,21.60
2017-10-26T18:53:16.154Z,21.00
2017-10-26T18:55:43.646Z,21.83
2017-10-26T18:58:11.141Z,19.83
2017-10-26T19:00:38.654Z,20.87
2017-10-26T19:03:06.151Z,22.67
2017-10-26T19:05:33.661Z,22.00
2017-10-26T19:08:01.140Z,20.67
2017-10-26T19:10:28.674Z,20.70
2017-10-26T19:12:56.154Z,20.80
2017-10-26T19:15:23.697Z,21.60
2017-10-26T19:17:51.206Z,21.60
2017-10-26T19:20:18.681Z,21.50
2017-10-26T19:22:46.169Z,20.87
2017-10-26T19:25:13.675Z,20.90
2017-10-26T19:27:41.144Z,21.20
2017-10-26T19:30:08.640Z,20.00
2017-10-26T19:32:36.161Z,20.30
2017-10-26T19:35:03.756Z,22.47
2017-10-26T19:37:31.226Z,19.50
2017-10-26T19:39:58.765Z,20.80
2017-10-26T19:42:26.363Z,20.20
2017-10-26T19:44:53.840Z,20.27
2017-10-26T19:47:21.395Z,20.10
2017-10-26T19:49:48.866Z,20.20
2017-10-26T19:52:16.442Z,20.20
2017-10-26T19:54:44.160Z,21.10
2017-10-26T19:57:11.645Z,20.63
2017-10-26T19:59:39.131Z,20.67
2017-10-26T20:02:06.650Z,20.83
2017-10-26T20:04:34.200Z,19.63
2017-10-26T20:07:01.738Z,20.40
2017-10-26T20:09:29.256Z,20.87
2017-10-26T20:11:56.731Z,20.77
2017-10-26T20:14:24.206Z,21.73
2017-10-26T20:16:51.755Z,22.60
2017-10-26T20:19:19.226Z,22.80
2017-10-26T20:21:46.705Z,22.00
2017-10-26T20:24:14.293Z,22.30
2017-10-26T20:26:41.792Z,22.90
2017-10-26T20:29:09.255Z,22.93
2017-10-26T20:31:36.814Z,21.53
2017-10-26T20:34:04.387Z,21.43
2017-10-26T20:36:32.039Z,21.90
2017-10-26T20:38:59.544Z,20.50
2017-10-26T20:41:27.045Z,22.47
2017-10-26T20:43:54.524Z,22.10
2017-10-26T20:46:22.083Z,23.20
2017-10-26T20:48:49.868Z,23.80
2017-10-26T20:51:23.821Z,21.63
2017-10-26T20:53:56.972Z,21.67
2017-10-26T20:56:29.930Z,21.73
2017-10-26T20:59:02.943Z,21.67
2017-10-26T21:01:35.955Z,21.87
2017-10-26T21:04:09.127Z,22.53
2017-10-26T21:06:36.619Z,24.50
2017-10-26T21:09:09.531Z,22.07
2017-10-26T21:11:42.662Z,23.60
2017-10-26T21:14:15.799Z,20.97
2017-10-26T21:16:43.322Z,23.40
2017-10-26T21:19:10.811Z,23.20
2017-10-26T21:21:38.314Z,25.40
2017-10-26T21:24:05.802Z,24.20
2017-10-26T21:26:33.534Z,23.80
2017-10-26T21:29:01.018Z,23.90
2017-10-26T21:31:28.525Z,24.70
2017-10-26T21:33:56.036Z,23.73
2017-10-26T21:36:23.503Z,23.80
2017-10-26T21:38:51.117Z,26.10
2017-10-26T21:41:18.631Z,24.00
2017-10-26T21:43:46.093Z,24.73
2017-10-26T21:46:13.609Z,25.50
2017-10-26T21:48:41.082Z,25.47
2017-10-26T21:51:08.555Z,26.97
2017-10-26T21:53:36.048Z,26.07
2017-10-26T21:56:03.503Z,28.37
2017-10-26T21:58:31.048Z,27.70
2017-10-26T22:00:58.566Z,26.63
2017-10-26T22:03:26.022Z,27.63
2017-10-26T22:05:53.508Z,27.13
2017-10-26T22:08:21.018Z,27.93
2017-10-26T22:10:48.493Z,27.47
2017-10-26T22:13:15.977Z,29.67
2017-10-26T22:15:43.492Z,29.37
2017-10-26T22:18:11.069Z,30.97
2017-10-26T22:20:38.540Z,30.97
2017-10-26T22:23:06.058Z,31.10
2017-10-26T22:25:33.521Z,30.07
2017-10-26T22:28:00.985Z,30.80
2017-10-26T22:30:28.699Z,32.33
2017-10-26T22:32:56.193Z,32.70
2017-10-26T22:35:23.681Z,33.70
2017-10-26T22:37:51.199Z,32.57
2017-10-26T22:40:18.677Z,30.50
2017-10-26T22:42:46.183Z,31.57
2017-10-26T22:45:13.707Z,33.37
2017-10-26T22:47:41.182Z,34.43
2017-10-26T22:50:08.639Z,33.30
2017-10-26T22:52:36.134Z,32.10
2017-10-26T22:55:03.601Z,31.07
2017-10-26T22:57:31.104Z,32.30
2017-10-26T22:59:58.609Z,32.00
2017-10-26T23:02:26.324Z,30.73
2017-10-26T23:04:53.826Z,33.20
2017-10-26T23:07:21.341Z,31.97
2017-10-26T23:09:48.818Z,34.17
2017-10-26T23:12:16.281Z,33.43
2017-10-26T23:14:43.838Z,34.20
2017-10-26T23:17:11.292Z,31.67
2017-10-26T23:19:38.780Z,32.93
2017-10-26T23:22:06.284Z,33.60
2017-10-26T23:24:33.827Z,32.67
2017-10-26T23:27:01.300Z,33.27
2017-10-26T23:29:28.810Z,32.30
2017-10-26T23:31:56.270Z,32.50
2017-10-26T23:34:23.742Z,32.57
2017-10-26T23:36:51.453Z,33.97
2017-10-26T23:39:18.932Z,34.00
2017-10-26T23:41:46.484Z,33.23
2017-10-26T23:44:19.729Z,32.70
2017-10-26T23:46:47.192Z,32.30
2017-10-26T23:49:14.662Z,33.27
2017-10-26T23:51:42.177Z,32.97
2017-10-26T23:54:09.644Z,33.90
2017-10-26T23:56:37.106Z,34.90
2017-10-26T23:59:04.611Z,34.03
